Flight Track Log - Related Links

Times and Time Zones

All times are in EDT time to prevent confusion due to time zone crossing. See the FLG3956 flight status page for this flight to view local times or setup timezone preferences in your user account.

Time Position Orientation Groundspeed Altitude Reporting Facility
EDT Latitude Longitude Course Direction KTS MPH feet Rate Location/Type
Fri 09:12:31 PM 39.0142 -77.5444 293° West 206 237 4,300  Level Washington Center
Fri 09:13:31 PM 39.0825 -77.5783 339° North 273 314 6,700 2,650 Climbing Washington Center
Fri 09:14:00 PM 39.2886 -77.5415 344° North  Level FlightAware Approximate
Fri 09:14:31 PM 39.1672 -77.6236 337° Northwest 287 330 9,600  Level Washington Center
Fri 09:15:00 PM 39.3782 -77.5751 344° North  Level FlightAware Approximate
Fri 09:15:31 PM 39.2497 -77.6742 335° Northwest 307 353 11,100  Level Washington Center
Fri 09:16:00 PM 39.4563 -77.6086 288° West  Level FlightAware Approximate
Fri 09:16:31 PM 39.3364 -77.7303 333° Northwest 324 373 13,100  Level Washington Center
Fri 09:17:00 PM 39.4856 -77.7233 293° West  Level FlightAware Approximate
Fri 09:17:31 PM 39.4269 -77.7892 333° Northwest 345 397 14,400  Level Washington Center
Fri 09:18:31 PM 39.5217 -77.8514 333° Northwest 365 420 16,000 1,600 Climbing Washington Center
Fri 09:19:31 PM 39.5656 -77.9550 299° West 341 392 17,600 1,423 Climbing Washington Center
Fri 09:21:45 PM 39.6442 -78.2025 292° West 331 381 20,600 1,237 Climbing Cleveland Center
Fri 09:22:45 PM 39.6778 -78.3172 291° West 336 387 21,600 1,150 Climbing Cleveland Center
Fri 09:23:45 PM 39.7111 -78.4297 291° West 341 392 22,900 950 Climbing Cleveland Center
Fri 09:24:45 PM 39.7444 -78.5447 291° West 341 392 23,500 550 Climbing Cleveland Center
Fri 09:25:45 PM 39.7800 -78.6653 291° West 346 398 24,000 450 Climbing Cleveland Center
Fri 09:26:45 PM 39.8069 -78.7753 288° West 346 398 24,400 500 Climbing Cleveland Center
Fri 09:27:45 PM 39.8486 -78.9147 291° West 369 425 25,000 550 Climbing Cleveland Center
Fri 09:28:45 PM 39.8836 -79.0303 292° West 375 432 25,500 500 Climbing Cleveland Center
Fri 09:29:45 PM 39.9206 -79.1567 291° West 375 432 26,000 500 Climbing Cleveland Center
Fri 09:30:45 PM 39.9783 -79.2828 301° West 386 444 26,500 500 Climbing Cleveland Center
Fri 09:31:45 PM 40.0422 -79.4061 304° West 399 459 27,000 500 Climbing Cleveland Center
Fri 09:32:45 PM 40.1061 -79.5325 303° West 411 473 27,500 500 Climbing Cleveland Center
Fri 09:33:45 PM 40.1678 -79.6594 302° West 411 473 28,000 550 Climbing Cleveland Center
Fri 09:34:45 PM 40.2311 -79.7864 303° West 411 473 28,600 500 Climbing Cleveland Center
Fri 09:35:45 PM 40.2944 -79.9136 303° West 416 479 29,000 550 Climbing Cleveland Center
Fri 09:36:45 PM 40.3619 -80.0600 301° West 423 487 29,700 500 Climbing Cleveland Center
Fri 09:37:45 PM 40.4272 -80.1931 303° West 423 487 30,000 150 Climbing Cleveland Center
Fri 09:38:45 PM 40.4942 -80.3264 303° West 423 487 30,000  Level Cleveland Center
Fri 09:39:45 PM 40.5592 -80.4575 303° West 428 493 30,000  Level Cleveland Center
Fri 09:40:45 PM 40.6156 -80.5778 302° West 440 506 30,000  Level Cleveland Center
Fri 09:41:45 PM 40.6883 -80.7200 304° West 440 506 30,000  Level Cleveland Center
Fri 09:42:45 PM 40.7486 -80.8489 302° West 428 493 30,000  Level Cleveland Center
Fri 09:43:45 PM 40.8086 -80.9808 301° West 423 487 30,000  Level Cleveland Center
Fri 09:44:45 PM 40.8644 -81.1019 301° West 423 487 30,000  Level Cleveland Center
Fri 09:45:45 PM 40.9261 -81.2344 302° West 423 487 30,000  Level Cleveland Center
Fri 09:46:45 PM 40.9942 -81.3808 302° West 429 494 30,000 -750 Level Cleveland Center
Fri 09:47:45 PM 41.0556 -81.5139 301° West 423 487 28,500 -1,500 Descending Cleveland Center
Fri 09:48:45 PM 41.1192 -81.6469 302° West 428 493 27,000 -1,550 Descending Cleveland Center
Fri 09:49:45 PM 41.1764 -81.7639 303° West 408 470 25,400 -1,500 Descending Cleveland Center
Fri 09:50:45 PM 41.2292 -81.8808 301° West 390 449 24,000 -700 Descending Cleveland Center
Fri 09:51:45 PM 41.2822 -81.9950 302° West 383 441 24,000 -350 Level Cleveland Center
Fri 09:52:45 PM 41.3369 -82.1125 302° West 378 435 23,300 -1,200 Descending Cleveland Center
Fri 09:53:45 PM 41.3897 -82.2161 304° West 378 435 21,600 -1,750 Descending Cleveland Center
Fri 09:54:45 PM 41.4506 -82.3200 308° West 365 420 19,800 -1,900 Descending Cleveland Center
Fri 09:55:45 PM 41.5156 -82.4300 308° West 360 414 17,800 -1,900 Descending Cleveland Center
Fri 09:56:45 PM 41.5744 -82.5317 308° West 345 397 16,000 -1,918 Descending Cleveland Center
Fri 09:57:22 PM 41.6150 -82.5939 311° West 339 390 14,700 -1,800 Descending Cleveland Center
Fri 09:57:45 PM 41.6331 -82.6278 305° West 345 397 14,200 -1,714 Descending Cleveland Center
Fri 09:58:11 PM 41.6575 -82.6675 309° West 329 379 13,300 -1,600 Descending Cleveland Center
Fri 09:58:45 PM 41.6817 -82.7100 307° West 340 391 12,600 -1,182 Descending Cleveland Center
Fri 09:59:17 PM 41.7200 -82.7753 308° West 316 364 12,000 -600 Descending Cleveland Center
Fri 09:59:45 PM 41.7406 -82.7983 320° Northwest 329 379 12,000  Level Cleveland Center
Fri 10:00:12 PM 41.7772 -82.8414 319° Northwest 316 364 12,000 100 Level Cleveland Center
Fri 10:00:45 PM 41.8056 -82.8786 316° Northwest 319 367 12,100  Climbing Cleveland Center
Fri 10:01:12 PM 41.8444 -82.9217 320° Northwest 321 369 12,000  Descending Cleveland Center
Fri 10:01:45 PM 41.8728 -82.9564 318° Northwest 319 367 12,100  Climbing Cleveland Center
Fri 10:02:07 PM 41.9056 -82.9936 320° Northwest 324 373 12,000 -100 Descending Cleveland Center
Fri 10:02:45 PM 41.9400 -83.0369 317° Northwest 319 367 12,000  Level Cleveland Center
Fri 10:03:14 PM 41.9786 -83.0831 318° Northwest 282 325 12,000 100 Level Cleveland Center
Fri 10:03:45 PM 42.0008 -83.1092 319° Northwest 312 359 12,100  Climbing Cleveland Center
Fri 10:04:08 PM 42.0333 -83.1494 317° Northwest 289 333 12,000 -300 Descending Cleveland Center
Fri 10:04:45 PM 42.0619 -83.1786 323° Northwest 296 341 11,800 -885 Descending Cleveland Center
Fri 10:05:09 PM 42.1033 -83.1917 347° North 293 337 11,100 -1,000 Descending Cleveland Center
Fri 10:05:45 PM 42.1386 -83.2014 348° North 277 319 10,800 -896 Descending Cleveland Center
Fri 10:06:16 PM 42.1911 -83.1867 12° North 309 356 10,100 -1,000 Descending Cleveland Center
Fri 10:06:45 PM 42.2206 -83.1711 21° North 277 319 9,800 -1,364 Descending Cleveland Center
Fri 10:07:22 PM 42.2797 -83.1369 23° Northeast 299 344 8,600 -1,696 Descending Cleveland Center
Fri 10:08:17 PM 42.3469 -83.1061 19° North 277 319 7,200 -1,473 Descending Cleveland Center
Fri 10:09:12 PM 42.3856 -83.1553 317° Northwest 195 224 5,900 -1,488 Descending Cleveland Center
Fri 10:10:18 PM 42.3633 -83.2136 243° Southwest 176 203 4,200 -1,263 Descending Cleveland Center
Fri 10:11:25 PM 42.3250 -83.2569 220° Southwest 150 173 3,100 -844 Descending Cleveland Center
Fri 10:12:26 PM 42.2931 -83.2808 209° Southwest 108 124 2,400 -678 Descending Cleveland Center
Fri 10:13:20 PM 42.2697 -83.2994 211° Southwest 114 131 1,800 -626 Descending Cleveland Center
Fri 10:14:21 PM 42.2419 -83.3206 209° Southwest 114 131 1,200 -590 Descending Cleveland Center

Login

Don't have an account? Register now (free) for customized features, flight alerts, and more!